KLHB/LHB METAR and TAF weather

Enter ICAO airport designator
Station Type Date Time Source
KLHB METAR 2020/01/29 18:55 UTC NOAA

KLHB 291855Z AUTO 33013G18KT 10SM OVC018 09/04 A3011 RMK AO2 T00870043


Station Type Date Time Source
KLHB Decoded METAR 2020/01/29 18:55 UTC NOAA

Hearne, Hearne Municipal Airport, TX, United States (KLHB) 30-52-18N 096-37-20W
Jan 29, 2020 - 01:55 PM EST / 2020.01.29 1855 UTC
Wind: from the NNW (330 degrees) at 15 MPH (13 KT) gusting to 21 MPH (18 KT):0
Visibility: 10 mile(s):0
Sky conditions: overcast
Temperature: 47.7 F (8.7 C)
Dew Point: 39.7 F (4.3 C)
Relative Humidity: 73%
Pressure (altimeter): 30.11 in. Hg (1019 hPa)
ob: KLHB 291855Z AUTO 33013G18KT 10SM OVC018 09/04 A3011 RMK AO2 T00870043
cycle: 19

Station Type Date Time Source
KLHB TAF UTC NOAA

Error!

Example: see airport list